Time;durP1;ratioP1;P1;durP2;ratioP2;P2;SDS_P1;SDS_P2;PMS_P1;PMS_P2;Temp;Humidity;BMP_temperature;BMP_pressure;BME280_temperature;BME280_humidity;BME280_pressure;Samples;Min_cycle;Max_cycle;Signal;HPM_P1;HPM_P2
2022/08/25 00:00:59;;;;;;;;;;;21.70;99.90;;;;;;5152730;27;19926;-77
2022/08/25 00:03:24;;;;;;;;;;;21.70;99.90;;;;;;5107157;27;20047;-76
2022/08/25 00:05:50;;;;;;;;;;;21.70;99.90;;;;;;5125382;27;19919;-77
2022/08/25 00:08:16;;;;;;;;;;;21.70;99.90;;;;;;5139606;27;19925;-77
2022/08/25 00:10:41;;;;;;;;;;;21.60;99.90;;;;;;5138879;27;19926;-77
2022/08/25 00:13:07;;;;;;;;;;;21.60;99.90;;;;;;5157144;27;20403;-77
2022/08/25 00:15:33;;;;;;;;;;;21.50;99.90;;;;;;5140949;27;19934;-76
2022/08/25 00:17:59;;;;;;;;;;;21.50;99.90;;;;;;5170468;27;19923;-77
2022/08/25 00:20:26;;;;;;;;;;;21.50;99.90;;;;;;5153989;27;20318;-77
2022/08/25 00:22:52;;;;;;;;;;;21.40;99.90;;;;;;5149554;27;19919;-76
2022/08/25 00:25:17;;;;;;;;;;;21.40;99.90;;;;;;5123089;27;19919;-77
2022/08/25 00:27:43;;;;;;;;;;;21.30;99.90;;;;;;5137512;27;19938;-76
2022/08/25 00:30:09;;;;;;;;;;;21.30;99.90;;;;;;5157436;27;19926;-76
2022/08/25 00:32:35;;;;;;;;;;;21.30;99.90;;;;;;5147364;27;19923;-76
2022/08/25 00:35:02;;;;;;;;;;;21.30;99.90;;;;;;5136288;27;19919;-76
2022/08/25 00:37:28;;;;;;;;;;;21.30;99.90;;;;;;5119395;27;19934;-76
2022/08/25 00:39:55;;;;;;;;;;;21.20;99.90;;;;;;5136303;27;19919;-76
2022/08/25 00:42:21;;;;;;;;;;;21.20;99.90;;;;;;5136196;27;19919;-77
2022/08/25 00:44:47;;;;;;;;;;;21.10;99.90;;;;;;5119138;27;19919;-77
2022/08/25 00:47:13;;;;;;;;;;;21.10;99.90;;;;;;5102413;27;19933;-76
2022/08/25 00:49:40;;;;;;;;;;;21.10;99.90;;;;;;5119302;27;19941;-76
2022/08/25 00:52:08;;;;;;;;;;;21.00;99.90;;;;;;5119234;27;19957;-76
2022/08/25 00:54:39;;;;;;;;;;;21.10;99.90;;;;;;5119347;27;19919;-76
2022/08/25 00:57:06;;;;;;;;;;;21.00;99.90;;;;;;5138448;27;20205;-76
2022/08/25 00:59:32;;;;;;;;;;;20.90;99.90;;;;;;5122768;27;19941;-77
2022/08/25 01:01:58;;;;;;;;;;;20.90;99.90;;;;;;5139868;27;19919;-77
2022/08/25 01:04:24;;;;;;;;;;;20.90;99.90;;;;;;5127286;27;19918;-77
2022/08/25 01:06:50;;;;;;;;;;;20.90;99.90;;;;;;5141023;27;19971;-78
2022/08/25 01:09:16;;;;;;;;;;;20.90;99.90;;;;;;5122970;27;19966;-77
2022/08/25 01:11:43;;;;;;;;;;;20.90;99.90;;;;;;5139975;27;20398;-77
2022/08/25 01:14:09;;;;;;;;;;;20.70;99.90;;;;;;5122673;27;20346;-77
2022/08/25 01:16:35;;;;;;;;;;;20.70;99.90;;;;;;5105530;27;20358;-77
2022/08/25 01:19:02;;;;;;;;;;;20.60;99.90;;;;;;5139675;27;19919;-77
2022/08/25 01:21:28;;;;;;;;;;;20.60;99.90;;;;;;5139780;27;19919;-77
2022/08/25 01:23:55;;;;;;;;;;;20.60;99.90;;;;;;5139210;27;19919;-78
2022/08/25 01:26:23;;;;;;;;;;;20.50;99.90;;;;;;5122577;27;19919;-78
2022/08/25 01:31:33;;;;;;;;;;;20.50;99.90;;;;;;5125020;27;19919;-77
2022/08/25 01:33:59;;;;;;;;;;;20.50;99.90;;;;;;5140874;27;20366;-77
2022/08/25 01:36:26;;;;;;;;;;;20.40;99.90;;;;;;5141526;27;20070;-77
2022/08/25 01:38:52;;;;;;;;;;;20.40;99.90;;;;;;5159260;27;19918;-78
2022/08/25 01:41:41;;;;;;;;;;;20.40;99.90;;;;;;5160288;27;19926;-77
2022/08/25 01:44:07;;;;;;;;;;;20.40;99.90;;;;;;5127723;27;19927;-77
2022/08/25 01:46:33;;;;;;;;;;;20.30;99.90;;;;;;5140074;27;19919;-77
2022/08/25 01:49:00;;;;;;;;;;;20.30;99.90;;;;;;5139010;27;19919;-77
2022/08/25 01:51:27;;;;;;;;;;;20.30;99.90;;;;;;5122161;27;19931;-77
2022/08/25 01:53:53;;;;;;;;;;;20.20;99.90;;;;;;5121954;27;19926;-78
2022/08/25 01:56:18;;;;;;;;;;;20.20;99.90;;;;;;5139090;27;20266;-77
2022/08/25 01:58:46;;;;;;;;;;;20.20;99.90;;;;;;5104952;27;19919;-77
2022/08/25 02:01:19;;;;;;;;;;;20.10;99.90;;;;;;5121640;27;19919;-77
2022/08/25 02:03:46;;;;;;;;;;;20.00;99.90;;;;;;5121653;27;19919;-77
2022/08/25 02:06:13;;;;;;;;;;;20.00;99.90;;;;;;5122619;27;20005;-78
2022/08/25 02:08:39;;;;;;;;;;;19.90;99.90;;;;;;5121090;27;19973;-77
2022/08/25 02:11:04;;;;;;;;;;;19.90;99.90;;;;;;5121469;27;19919;-77
2022/08/25 02:13:30;;;;;;;;;;;19.90;99.90;;;;;;5121627;27;19940;-77
2022/08/25 02:15:57;;;;;;;;;;;19.90;99.90;;;;;;5138637;27;19926;-77
2022/08/25 02:18:23;;;;;;;;;;;19.80;99.90;;;;;;5122616;27;19919;-77
2022/08/25 02:20:49;;;;;;;;;;;19.80;99.90;;;;;;5138718;27;20002;-77
2022/08/25 02:23:14;;;;;;;;;;;19.70;99.90;;;;;;5137858;27;20375;-77
2022/08/25 02:25:40;;;;;;;;;;;19.70;99.90;;;;;;5121418;27;19926;-77
2022/08/25 02:28:07;;;;;;;;;;;19.70;99.90;;;;;;5139387;27;19926;-77
2022/08/25 02:30:33;;;;;;;;;;;19.60;99.90;;;;;;5121230;27;19919;-77
2022/08/25 02:32:58;;;;;;;;;;;19.60;99.90;;;;;;5133630;27;19933;-77
2022/08/25 02:35:24;;;;;;;;;;;19.60;99.90;;;;;;5159142;27;19918;-77
2022/08/25 02:37:51;;;;;;;;;;;19.60;99.90;;;;;;5157335;27;19919;-77
2022/08/25 02:40:16;;;;;;;;;;;19.50;99.90;;;;;;5158342;27;20417;-77
2022/08/25 02:42:42;;;;;;;;;;;19.50;99.90;;;;;;5141180;27;19998;-77
2022/08/25 02:45:08;;;;;;;;;;;19.50;99.90;;;;;;5141444;27;19918;-77
2022/08/25 02:47:34;;;;;;;;;;;19.50;99.90;;;;;;5141542;27;20002;-77
2022/08/25 02:49:59;;;;;;;;;;;19.40;99.90;;;;;;5122011;27;19923;-78
2022/08/25 02:52:25;;;;;;;;;;;19.40;99.90;;;;;;5138150;27;19923;-77
2022/08/25 02:54:50;;;;;;;;;;;19.40;99.90;;;;;;5103774;27;19919;-77
2022/08/25 02:57:16;;;;;;;;;;;19.30;99.90;;;;;;5120474;27;19923;-77
2022/08/25 02:59:46;;;;;;;;;;;19.30;99.90;;;;;;5133983;27;19919;-77
2022/08/25 03:02:11;;;;;;;;;;;19.20;99.90;;;;;;5131032;27;19919;-77
2022/08/25 03:04:37;;;;;;;;;;;19.30;99.90;;;;;;5128635;27;19926;-77
2022/08/25 03:07:03;;;;;;;;;;;19.20;99.90;;;;;;5120251;27;19919;-77
2022/08/25 03:09:28;;;;;;;;;;;19.20;99.90;;;;;;5107122;27;19972;-77
2022/08/25 03:11:54;;;;;;;;;;;19.20;99.90;;;;;;5137643;27;20019;-77
2022/08/25 03:14:19;;;;;;;;;;;19.20;99.90;;;;;;5137232;27;19919;-77
2022/08/25 03:16:45;;;;;;;;;;;19.20;99.90;;;;;;5137550;27;19929;-76
2022/08/25 03:19:10;;;;;;;;;;;19.10;99.90;;;;;;5120510;27;19956;-78
2022/08/25 03:21:37;;;;;;;;;;;19.20;99.90;;;;;;5119996;27;19962;-77
2022/08/25 03:24:03;;;;;;;;;;;19.10;99.90;;;;;;5136871;27;20374;-77
2022/08/25 03:29:14;;;;;;;;;;;19.00;99.90;;;;;;5122609;27;19919;-77
2022/08/25 03:31:41;;;;;;;;;;;19.10;99.90;;;;;;5137001;27;19926;-78
2022/08/25 03:34:08;;;;;;;;;;;19.00;99.90;;;;;;5156957;27;19919;-77
2022/08/25 03:36:33;;;;;;;;;;;19.00;99.90;;;;;;5135654;27;20323;-77
2022/08/25 03:38:59;;;;;;;;;;;19.00;99.90;;;;;;5120034;27;19970;-77
2022/08/25 03:41:27;;;;;;;;;;;19.00;99.90;;;;;;5136177;27;19919;-77
2022/08/25 03:43:53;;;;;;;;;;;18.90;99.90;;;;;;5119828;27;19948;-77
2022/08/25 03:46:19;;;;;;;;;;;18.90;99.90;;;;;;5114216;27;19919;-77
2022/08/25 03:48:45;;;;;;;;;;;18.90;99.90;;;;;;5137066;27;19959;-77
2022/08/25 03:51:10;;;;;;;;;;;18.80;99.90;;;;;;5136751;27;19919;-77
2022/08/25 03:53:36;;;;;;;;;;;18.80;99.90;;;;;;5119936;27;19926;-77
2022/08/25 03:56:02;;;;;;;;;;;18.80;99.90;;;;;;5129266;27;19926;-77
2022/08/25 03:58:28;;;;;;;;;;;18.70;99.90;;;;;;5140390;27;19919;-77
2022/08/25 04:00:53;;;;;;;;;;;18.70;99.90;;;;;;5157585;27;19979;-77
2022/08/25 04:03:19;;;;;;;;;;;18.70;99.90;;;;;;5122806;27;19918;-77
2022/08/25 04:05:45;;;;;;;;;;;18.70;99.90;;;;;;5135132;27;20408;-77
2022/08/25 04:08:11;;;;;;;;;;;18.70;99.90;;;;;;5136725;27;20012;-77
2022/08/25 04:10:37;;;;;;;;;;;18.70;99.90;;;;;;5102816;27;20369;-77
2022/08/25 04:13:02;;;;;;;;;;;18.70;99.90;;;;;;5119895;27;20307;-77
2022/08/25 04:15:28;;;;;;;;;;;18.60;99.90;;;;;;5119340;27;19920;-77
2022/08/25 04:17:54;;;;;;;;;;;18.60;99.90;;;;;;5120322;27;19919;-77
2022/08/25 04:20:19;;;;;;;;;;;18.60;99.90;;;;;;5102611;27;19919;-77
2022/08/25 04:22:45;;;;;;;;;;;18.60;99.90;;;;;;5119562;27;19930;-77
2022/08/25 04:25:10;;;;;;;;;;;18.60;99.90;;;;;;5136625;27;19919;-77
2022/08/25 04:27:36;;;;;;;;;;;18.60;99.90;;;;;;5137852;27;20003;-77
2022/08/25 04:30:03;;;;;;;;;;;18.50;99.90;;;;;;5119713;27;19920;-77
2022/08/25 04:32:28;;;;;;;;;;;18.50;99.90;;;;;;5123536;27;19919;-77
2022/08/25 04:34:54;;;;;;;;;;;18.50;99.90;;;;;;5123667;27;19971;-77
2022/08/25 04:37:19;;;;;;;;;;;18.50;99.90;;;;;;5123761;27;20273;-77
2022/08/25 04:39:45;;;;;;;;;;;18.50;99.90;;;;;;5123552;27;19930;-77
2022/08/25 04:42:10;;;;;;;;;;;18.50;99.90;;;;;;5123693;27;19923;-77
2022/08/25 04:44:36;;;;;;;;;;;18.50;99.90;;;;;;5123546;27;19942;-77
2022/08/25 04:47:02;;;;;;;;;;;18.40;99.90;;;;;;5141192;27;19919;-77
2022/08/25 04:49:27;;;;;;;;;;;18.40;99.90;;;;;;5143828;27;19925;-77
2022/08/25 04:51:53;;;;;;;;;;;18.40;99.90;;;;;;5142244;27;19926;-77
2022/08/25 04:54:20;;;;;;;;;;;18.30;99.90;;;;;;5143838;27;20383;-77
2022/08/25 04:56:46;;;;;;;;;;;18.30;99.90;;;;;;5143895;27;19979;-77
2022/08/25 04:59:13;;;;;;;;;;;18.30;99.90;;;;;;5127126;27;19922;-77
2022/08/25 05:01:40;;;;;;;;;;;18.30;99.90;;;;;;5154562;27;19919;-77
2022/08/25 05:04:06;;;;;;;;;;;18.40;99.90;;;;;;5143343;27;20014;-77
2022/08/25 05:06:32;;;;;;;;;;;18.40;99.90;;;;;;5143547;27;20393;-77
2022/08/25 05:08:58;;;;;;;;;;;18.40;99.90;;;;;;5143702;27;19981;-77
2022/08/25 05:11:24;;;;;;;;;;;18.40;99.90;;;;;;5141722;27;19919;-77
2022/08/25 05:13:50;;;;;;;;;;;18.40;99.90;;;;;;5143628;27;20306;-77
2022/08/25 05:16:16;;;;;;;;;;;18.40;99.90;;;;;;5160638;27;19922;-77
2022/08/25 05:18:42;;;;;;;;;;;18.50;99.90;;;;;;5143405;27;19982;-77
2022/08/25 05:21:09;;;;;;;;;;;18.50;99.90;;;;;;5137581;27;19926;-77
2022/08/25 05:23:36;;;;;;;;;;;18.50;99.90;;;;;;5122320;27;19919;-77
2022/08/25 05:26:06;;;;;;;;;;;18.50;99.90;;;;;;5122822;27;20228;-77
2022/08/25 05:28:32;;;;;;;;;;;18.50;99.90;;;;;;5122480;27;19919;-77
2022/08/25 05:30:58;;;;;;;;;;;18.50;99.90;;;;;;5140588;27;19926;-77
2022/08/25 05:33:24;;;;;;;;;;;18.60;99.90;;;;;;5122501;27;19965;-77
2022/08/25 05:35:50;;;;;;;;;;;18.60;99.90;;;;;;5120210;27;20266;-77
2022/08/25 05:38:16;;;;;;;;;;;18.60;99.90;;;;;;5122435;27;19923;-77
2022/08/25 05:40:42;;;;;;;;;;;18.70;99.90;;;;;;5139583;27;20022;-77
2022/08/25 05:43:07;;;;;;;;;;;18.70;99.90;;;;;;5120720;27;19944;-77
2022/08/25 05:45:33;;;;;;;;;;;18.80;99.90;;;;;;5134475;27;19919;-75
2022/08/25 05:47:59;;;;;;;;;;;18.80;99.90;;;;;;5122415;27;20372;-76
2022/08/25 05:50:24;;;;;;;;;;;18.80;99.90;;;;;;5121998;27;20355;-76
2022/08/25 05:52:50;;;;;;;;;;;18.80;99.90;;;;;;5138995;27;20006;-77
2022/08/25 05:55:16;;;;;;;;;;;18.90;99.90;;;;;;5151851;27;19922;-77
2022/08/25 05:57:41;;;;;;;;;;;18.90;99.90;;;;;;5142471;27;20006;-76
2022/08/25 06:00:08;;;;;;;;;;;19.00;99.90;;;;;;5160009;27;19919;-75
2022/08/25 06:02:43;;;;;;;;;;;19.10;99.90;;;;;;5152652;27;19926;-75
2022/08/25 06:05:15;;;;;;;;;;;19.20;99.90;;;;;;5129799;27;19943;-76
2022/08/25 06:07:40;;;;;;;;;;;19.20;99.90;;;;;;5134554;27;19919;-75
2022/08/25 06:10:07;;;;;;;;;;;19.30;99.90;;;;;;5151437;27;19930;-75
2022/08/25 06:12:34;;;;;;;;;;;19.40;99.90;;;;;;5159504;27;19919;-76
2022/08/25 06:15:00;;;;;;;;;;;19.50;99.90;;;;;;5140903;27;19918;-75
2022/08/25 06:17:26;;;;;;;;;;;19.50;99.90;;;;;;5149805;27;20336;-76
2022/08/25 06:19:52;;;;;;;;;;;19.60;99.90;;;;;;5119055;27;19962;-76
2022/08/25 06:22:18;;;;;;;;;;;19.70;99.90;;;;;;5138221;27;19919;-76
2022/08/25 06:24:43;;;;;;;;;;;19.80;99.90;;;;;;5121665;27;19919;-77
2022/08/25 06:27:09;;;;;;;;;;;19.80;99.90;;;;;;5126870;27;20288;-76
2022/08/25 06:29:34;;;;;;;;;;;19.90;99.90;;;;;;5121275;27;20357;-76
2022/08/25 06:32:00;;;;;;;;;;;20.00;99.90;;;;;;5104087;27;20005;-76
2022/08/25 06:34:26;;;;;;;;;;;20.10;99.90;;;;;;5141254;27;19923;-77
2022/08/25 06:36:52;;;;;;;;;;;20.10;99.90;;;;;;5128526;27;19926;-77
2022/08/25 06:39:17;;;;;;;;;;;20.20;99.90;;;;;;5127125;27;19919;-77
2022/08/25 06:41:43;;;;;;;;;;;20.30;99.90;;;;;;5114486;27;19919;-76
2022/08/25 06:44:09;;;;;;;;;;;20.40;99.90;;;;;;5136978;27;19933;-76
2022/08/25 06:46:35;;;;;;;;;;;20.40;99.90;;;;;;5158778;27;20354;-76
2022/08/25 06:49:01;;;;;;;;;;;20.50;99.90;;;;;;5139299;27;19944;-75
2022/08/25 06:51:27;;;;;;;;;;;20.60;99.90;;;;;;5103964;27;19974;-76
2022/08/25 06:53:52;;;;;;;;;;;20.70;99.90;;;;;;5123383;27;19993;-78
2022/08/25 06:56:19;;;;;;;;;;;20.70;99.90;;;;;;5127005;27;19942;-79
2022/08/25 06:58:45;;;;;;;;;;;20.80;99.90;;;;;;5125114;27;20227;-78
2022/08/25 07:01:15;;;;;;;;;;;20.90;99.90;;;;;;5128665;27;19926;-78
2022/08/25 07:03:41;;;;;;;;;;;21.00;99.90;;;;;;5148648;27;19930;-78
2022/08/25 07:06:07;;;;;;;;;;;21.10;99.90;;;;;;5141390;27;19919;-77
2022/08/25 07:08:34;;;;;;;;;;;21.20;99.90;;;;;;5124301;27;19942;-78
2022/08/25 07:11:04;;;;;;;;;;;21.30;99.90;;;;;;5143685;27;20369;-77
2022/08/25 07:13:30;;;;;;;;;;;21.40;99.90;;;;;;5119756;27;19919;-77
2022/08/25 07:15:55;;;;;;;;;;;21.50;99.90;;;;;;5120531;27;20398;-76
2022/08/25 07:18:21;;;;;;;;;;;21.60;99.90;;;;;;5122009;27;19919;-78
2022/08/25 07:20:47;;;;;;;;;;;21.70;99.90;;;;;;5129435;27;20025;-76
2022/08/25 07:23:12;;;;;;;;;;;21.80;99.90;;;;;;5143886;27;19922;-74
2022/08/25 07:25:38;;;;;;;;;;;21.90;99.90;;;;;;5111661;27;19948;-76
2022/08/25 07:28:03;;;;;;;;;;;22.00;99.90;;;;;;5128442;27;20327;-84
2022/08/25 07:30:29;;;;;;;;;;;22.10;99.90;;;;;;5129547;27;19922;-86
2022/08/25 07:32:55;;;;;;;;;;;22.20;99.90;;;;;;5122300;27;19918;-83
2022/08/25 07:35:23;;;;;;;;;;;22.20;99.90;;;;;;5122596;27;19919;-85
2022/08/25 07:37:50;;;;;;;;;;;22.30;99.90;;;;;;5147167;27;19926;-81
2022/08/25 07:40:17;;;;;;;;;;;22.40;99.90;;;;;;5144544;27;19923;-82
2022/08/25 07:42:43;;;;;;;;;;;22.50;99.90;;;;;;5129261;27;20015;-82
2022/08/25 07:45:09;;;;;;;;;;;22.70;99.90;;;;;;5147136;27;20379;-82
2022/08/25 07:47:35;;;;;;;;;;;22.80;99.90;;;;;;5112567;27;19919;-81
2022/08/25 07:50:01;;;;;;;;;;;22.90;99.90;;;;;;5120714;27;19919;-81
2022/08/25 07:52:27;;;;;;;;;;;23.00;99.90;;;;;;5139817;27;19926;-83
2022/08/25 07:54:53;;;;;;;;;;;23.00;99.90;;;;;;5132857;27;20002;-81
2022/08/25 07:57:21;;;;;;;;;;;23.10;99.90;;;;;;5149594;27;19919;-82
2022/08/25 07:59:46;;;;;;;;;;;23.20;99.90;;;;;;5120822;27;19931;-81
2022/08/25 08:02:12;;;;;;;;;;;23.40;99.90;;;;;;5151808;27;19918;-82
2022/08/25 08:04:38;;;;;;;;;;;23.50;99.90;;;;;;5121204;27;19919;-78
2022/08/25 08:07:05;;;;;;;;;;;23.60;99.90;;;;;;5155586;27;19971;-80
2022/08/25 08:09:31;;;;;;;;;;;23.70;99.90;;;;;;5140075;27;20303;-81
2022/08/25 08:11:56;;;;;;;;;;;23.80;99.90;;;;;;5139533;27;19923;-77
2022/08/25 08:14:22;;;;;;;;;;;23.90;99.90;;;;;;5105088;27;19919;-78
2022/08/25 08:16:48;;;;;;;;;;;24.00;99.90;;;;;;5123343;27;19918;-73
2022/08/25 08:19:14;;;;;;;;;;;24.10;99.90;;;;;;5135076;27;19925;-77
2022/08/25 08:21:40;;;;;;;;;;;24.30;99.90;;;;;;5146194;27;19919;-73
2022/08/25 08:24:06;;;;;;;;;;;24.40;99.90;;;;;;5164607;27;19923;-73
2022/08/25 08:26:31;;;;;;;;;;;24.50;99.90;;;;;;5119524;27;19919;-73
2022/08/25 08:28:57;;;;;;;;;;;24.70;99.90;;;;;;5112163;27;19919;-73
2022/08/25 08:31:25;;;;;;;;;;;24.80;99.90;;;;;;5135135;27;20013;-76
2022/08/25 08:33:52;;;;;;;;;;;24.90;99.90;;;;;;5139193;27;19962;-73
2022/08/25 08:36:18;;;;;;;;;;;24.90;99.90;;;;;;5143169;27;19962;-73
2022/08/25 08:38:44;;;;;;;;;;;25.10;99.90;;;;;;5145480;27;19966;-73
2022/08/25 08:44:11;;;;;;;;;;;25.30;99.90;;;;;;5117702;28;19920;-73
2022/08/25 08:46:48;;;;;;;;;;;25.40;99.90;;;;;;5142722;27;19927;-74
2022/08/25 08:49:22;;;;;;;;;;;25.50;99.90;;;;;;5121341;28;19919;-73
2022/08/25 08:51:53;;;;;;;;;;;25.60;99.90;;;;;;5127834;28;20010;-74
2022/08/25 08:54:22;;;;;;;;;;;25.70;99.90;;;;;;5129005;28;19919;-73
2022/08/25 08:56:50;;;;;;;;;;;25.80;99.90;;;;;;5126063;28;19919;-74
2022/08/25 08:59:24;;;;;;;;;;;25.90;99.90;;;;;;5115246;28;19920;-77
2022/08/25 09:01:52;;;;;;;;;;;26.00;99.90;;;;;;5102797;28;19989;-76
2022/08/25 09:04:18;;;;;;;;;;;26.10;99.90;;;;;;5109184;28;19927;-75
2022/08/25 09:06:46;;;;;;;;;;;26.30;99.90;;;;;;5111871;28;19920;-78
2022/08/25 09:09:15;;;;;;;;;;;26.40;99.90;;;;;;5112345;28;20369;-74
2022/08/25 09:11:46;;;;;;;;;;;26.40;99.90;;;;;;5095050;28;20310;-77
2022/08/25 09:14:25;;;;;;;;;;;26.50;99.90;;;;;;5116262;28;20356;-76
2022/08/25 09:17:01;;;;;;;;;;;26.60;99.90;;;;;;5132577;27;19942;-76
2022/08/25 09:19:32;;;;;;;;;;;26.70;99.90;;;;;;5114526;28;20367;-77
2022/08/25 09:22:05;;;;;;;;;;;26.80;99.90;;;;;;5116448;27;20011;-76
2022/08/25 09:24:46;;;;;;;;;;;26.90;99.90;;;;;;5136924;27;19927;-78
2022/08/25 09:27:17;;;;;;;;;;;26.90;99.90;;;;;;5116096;27;19927;-77
2022/08/25 09:29:58;;;;;;;;;;;27.10;99.90;;;;;;5120333;27;19923;-78
2022/08/25 09:32:24;;;;;;;;;;;27.20;99.90;;;;;;5127431;27;19919;-77
2022/08/25 09:34:51;;;;;;;;;;;27.30;99.90;;;;;;5108561;28;19927;-78
2022/08/25 09:37:16;;;;;;;;;;;27.40;99.90;;;;;;5121652;27;19920;-80
2022/08/25 09:39:42;;;;;;;;;;;27.50;99.80;;;;;;5103613;27;20400;-78
2022/08/25 09:42:07;;;;;;;;;;;27.60;99.90;;;;;;5117204;27;19925;-78
2022/08/25 09:44:40;;;;;;;;;;;27.70;99.90;;;;;;5125462;27;19993;-80
2022/08/25 09:47:14;;;;;;;;;;;27.80;99.30;;;;;;5126469;27;19970;-80
2022/08/25 09:49:44;;;;;;;;;;;27.80;98.70;;;;;;5130918;27;19942;-81
2022/08/25 09:52:25;;;;;;;;;;;27.90;98.30;;;;;;5118426;27;20307;-79
2022/08/25 09:54:52;;;;;;;;;;;28.00;97.70;;;;;;5135367;27;19926;-79
2022/08/25 09:57:36;;;;;;;;;;;28.10;98.40;;;;;;5134480;27;19919;-79
2022/08/25 10:00:11;;;;;;;;;;;28.20;98.00;;;;;;5132468;27;19919;-80
2022/08/25 10:02:37;;;;;;;;;;;28.40;97.40;;;;;;5120982;27;19918;-79
2022/08/25 10:05:23;;;;;;;;;;;28.50;97.50;;;;;;5156058;27;20357;-84
2022/08/25 10:07:50;;;;;;;;;;;28.50;96.30;;;;;;5143101;27;19974;-82
2022/08/25 10:10:17;;;;;;;;;;;28.70;96.40;;;;;;5145968;27;19923;-79
2022/08/25 10:12:45;;;;;;;;;;;28.70;96.40;;;;;;5118132;27;19974;-80
2022/08/25 10:15:29;;;;;;;;;;;28.80;95.70;;;;;;5139118;27;19953;-79
2022/08/25 10:17:55;;;;;;;;;;;28.90;96.60;;;;;;5153869;27;19954;-81
2022/08/25 10:20:25;;;;;;;;;;;29.10;96.00;;;;;;5146503;27;19969;-78
2022/08/25 10:22:52;;;;;;;;;;;29.10;95.10;;;;;;5118268;27;20379;-79
2022/08/25 10:25:26;;;;;;;;;;;29.20;96.20;;;;;;5109126;27;19943;-84
2022/08/25 10:28:11;;;;;;;;;;;29.30;94.90;;;;;;5134556;27;19927;-76
2022/08/25 10:30:52;;;;;;;;;;;29.40;95.20;;;;;;5132790;27;20411;-78
2022/08/25 10:33:23;;;;;;;;;;;29.50;94.20;;;;;;5124898;27;19923;-79
2022/08/25 10:36:04;;;;;;;;;;;29.60;93.30;;;;;;5132801;27;20377;-86
2022/08/25 10:39:02;;;;;;;;;;;29.70;93.10;;;;;;5118030;27;19923;-78
2022/08/25 10:41:37;;;;;;;;;;;29.80;93.90;;;;;;5110049;27;19929;-81
2022/08/25 10:47:25;;;;;;;;;;;30.10;94.50;;;;;;5132937;27;19930;-79
2022/08/25 10:49:57;;;;;;;;;;;30.30;94.10;;;;;;5135187;27;19919;-78
2022/08/25 10:52:30;;;;;;;;;;;30.30;94.30;;;;;;5117393;27;20389;-78
2022/08/25 10:55:11;;;;;;;;;;;30.40;94.40;;;;;;5119503;27;20037;-78
2022/08/25 10:57:56;;;;;;;;;;;30.50;92.90;;;;;;5121452;27;20301;-81
2022/08/25 11:00:25;;;;;;;;;;;30.60;92.80;;;;;;5138198;27;19977;-79
2022/08/25 11:03:01;;;;;;;;;;;30.80;92.60;;;;;;5128062;27;20512;-79
2022/08/25 11:05:35;;;;;;;;;;;30.90;92.60;;;;;;5124477;27;19927;-80
2022/08/25 11:08:10;;;;;;;;;;;30.90;91.90;;;;;;5145968;27;19929;-79
2022/08/25 11:10:39;;;;;;;;;;;31.00;92.10;;;;;;5130887;27;19931;-79
2022/08/25 11:13:08;;;;;;;;;;;31.00;91.70;;;;;;5152338;27;19971;-79
2022/08/25 11:16:00;;;;;;;;;;;31.00;90.80;;;;;;5154838;27;19930;-78
2022/08/25 11:18:27;;;;;;;;;;;31.00;90.50;;;;;;5145994;27;20019;-78
2022/08/25 11:21:04;;;;;;;;;;;31.20;91.40;;;;;;5127502;27;19967;-75
2022/08/25 11:23:34;;;;;;;;;;;31.40;90.90;;;;;;5136732;27;19919;-80
2022/08/25 11:26:05;;;;;;;;;;;31.60;91.60;;;;;;5138651;27;20367;-76
2022/08/25 11:28:50;;;;;;;;;;;31.80;91.00;;;;;;5134785;27;19971;-78
2022/08/25 11:31:17;;;;;;;;;;;31.90;90.20;;;;;;5142202;27;20030;-78
2022/08/25 11:33:43;;;;;;;;;;;32.30;91.20;;;;;;5150188;27;19919;-77
2022/08/25 11:36:16;;;;;;;;;;;32.60;90.50;;;;;;5133758;27;19930;-76
2022/08/25 11:39:00;;;;;;;;;;;32.90;90.70;;;;;;5162853;27;19923;-78
2022/08/25 11:41:25;;;;;;;;;;;33.30;89.20;;;;;;5116633;27;20017;-78
2022/08/25 11:43:51;;;;;;;;;;;33.50;87.60;;;;;;5148695;27;20010;-77
2022/08/25 11:46:44;;;;;;;;;;;33.70;89.90;;;;;;5154388;27;20034;-83
2022/08/25 11:49:16;;;;;;;;;;;33.90;87.50;;;;;;5142198;27;19919;-77
2022/08/25 11:51:44;;;;;;;;;;;34.00;85.70;;;;;;5142955;27;20385;-79
2022/08/25 11:54:23;;;;;;;;;;;34.30;86.70;;;;;;5137948;27;19923;-78
2022/08/25 11:56:52;;;;;;;;;;;34.50;87.90;;;;;;5154914;27;20369;-79
2022/08/25 11:59:36;;;;;;;;;;;34.60;84.80;;;;;;5145097;27;20788;-78
2022/08/25 12:02:02;;;;;;;;;;;34.60;83.10;;;;;;5136003;27;19990;-79
2022/08/25 12:04:36;;;;;;;;;;;34.60;81.10;;;;;;5136379;27;19989;-79
2022/08/25 12:07:05;;;;;;;;;;;34.80;82.20;;;;;;5116858;27;19919;-82
2022/08/25 12:09:50;;;;;;;;;;;34.90;81.40;;;;;;5143375;27;19979;-79
2022/08/25 12:12:28;;;;;;;;;;;35.00;81.70;;;;;;5136027;27;19985;-77
2022/08/25 12:14:54;;;;;;;;;;;35.10;80.80;;;;;;5147224;27;19923;-79
2022/08/25 12:17:23;;;;;;;;;;;35.30;81.20;;;;;;5145129;27;20014;-80
2022/08/25 12:19:51;;;;;;;;;;;35.50;83.10;;;;;;5146433;27;19973;-80
2022/08/25 12:22:20;;;;;;;;;;;35.70;81.00;;;;;;5146570;27;19926;-80
2022/08/25 12:24:53;;;;;;;;;;;35.80;80.30;;;;;;5146580;27;19931;-80
2022/08/25 12:27:37;;;;;;;;;;;35.80;78.50;;;;;;5142603;27;19988;-79
2022/08/25 12:30:03;;;;;;;;;;;35.80;76.50;;;;;;5120401;27;19931;-81
2022/08/25 12:32:44;;;;;;;;;;;35.80;77.70;;;;;;5125532;27;19922;-79
2022/08/25 12:35:22;;;;;;;;;;;35.80;75.20;;;;;;5131723;27;19919;-79
2022/08/25 12:37:53;;;;;;;;;;;35.80;74.00;;;;;;5145067;27;19926;-80
2022/08/25 12:40:31;;;;;;;;;;;36.00;76.00;;;;;;5139052;27;20289;-78
2022/08/25 12:43:05;;;;;;;;;;;36.30;76.00;;;;;;5126188;27;19935;-78
2022/08/25 12:45:37;;;;;;;;;;;36.50;76.20;;;;;;5120169;27;20013;-78
2022/08/25 12:48:21;;;;;;;;;;;36.60;74.70;;;;;;5121207;27;19919;-84
2022/08/25 12:50:54;;;;;;;;;;;36.90;72.60;;;;;;5139656;27;19927;-82
2022/08/25 12:53:26;;;;;;;;;;;36.90;72.90;;;;;;5140595;27;19962;-78
2022/08/25 12:55:56;;;;;;;;;;;36.90;70.70;;;;;;5144376;27;20278;-78
2022/08/25 12:58:23;;;;;;;;;;;36.90;72.60;;;;;;5144323;27;20446;-80
2022/08/25 13:00:56;;;;;;;;;;;36.90;71.50;;;;;;5149802;27;20304;-81
2022/08/25 13:03:37;;;;;;;;;;;36.90;72.20;;;;;;5157306;27;20014;-77
2022/08/25 13:06:18;;;;;;;;;;;37.20;71.10;;;;;;5131103;27;19923;-77
2022/08/25 13:08:55;;;;;;;;;;;37.40;72.90;;;;;;5149309;27;19922;-77
2022/08/25 13:11:41;;;;;;;;;;;37.60;70.20;;;;;;5157859;27;19922;-83
2022/08/25 13:14:16;;;;;;;;;;;37.70;68.60;;;;;;5148783;27;20017;-78
2022/08/25 13:16:51;;;;;;;;;;;37.60;70.10;;;;;;5150135;27;20364;-78
2022/08/25 13:19:17;;;;;;;;;;;37.80;67.80;;;;;;5122525;27;19927;-78
2022/08/25 13:21:43;;;;;;;;;;;37.80;68.40;;;;;;5136921;27;19929;-82
2022/08/25 13:24:21;;;;;;;;;;;37.90;65.50;;;;;;5123782;27;20396;-80
2022/08/25 13:26:49;;;;;;;;;;;38.20;67.20;;;;;;5137254;27;19923;-79
2022/08/25 13:29:17;;;;;;;;;;;38.50;67.60;;;;;;5136493;27;20460;-78
2022/08/25 13:32:09;;;;;;;;;;;38.40;64.10;;;;;;5136264;27;19923;-77
2022/08/25 13:34:37;;;;;;;;;;;38.40;64.20;;;;;;5120127;27;19919;-78
2022/08/25 13:37:28;;;;;;;;;;;38.70;65.80;;;;;;5126971;27;19991;-78
2022/08/25 13:40:15;;;;;;;;;;;38.90;62.60;;;;;;5136716;27;19923;-76
2022/08/25 13:42:48;;;;;;;;;;;39.30;64.30;;;;;;5135581;27;19990;-76
2022/08/25 13:45:15;;;;;;;;;;;39.60;62.40;;;;;;5142243;27;19923;-75
2022/08/25 13:47:41;;;;;;;;;;;39.90;66.50;;;;;;5136322;27;19981;-79
2022/08/25 13:50:25;;;;;;;;;;;39.80;61.30;;;;;;5136978;27;20378;-80
2022/08/25 13:53:02;;;;;;;;;;;39.80;61.90;;;;;;5121850;27;19919;-82
2022/08/25 13:55:48;;;;;;;;;;;40.00;64.00;;;;;;5145655;27;19930;-80
2022/08/25 13:58:15;;;;;;;;;;;40.30;61.00;;;;;;5156091;27;19919;-80
2022/08/25 14:00:45;;;;;;;;;;;40.60;61.00;;;;;;5122250;27;19930;-81
2022/08/25 14:03:30;;;;;;;;;;;40.80;60.40;;;;;;5135839;27;19923;-81
2022/08/25 14:06:03;;;;;;;;;;;40.80;58.90;;;;;;5136020;27;19927;-81
2022/08/25 14:08:30;;;;;;;;;;;40.50;57.40;;;;;;5122668;27;19958;-81
2022/08/25 14:11:07;;;;;;;;;;;40.70;56.90;;;;;;5118796;27;19973;-81
2022/08/25 14:13:33;;;;;;;;;;;40.50;56.30;;;;;;5135852;27;19919;-81
2022/08/25 14:16:18;;;;;;;;;;;40.90;56.50;;;;;;5136107;27;19942;-81
2022/08/25 14:18:51;;;;;;;;;;;41.00;55.60;;;;;;5135447;27;20331;-81
2022/08/25 14:21:17;;;;;;;;;;;40.20;54.60;;;;;;5136711;27;19962;-80
2022/08/25 14:23:43;;;;;;;;;;;40.20;54.20;;;;;;5144037;27;20278;-80
2022/08/25 14:26:09;;;;;;;;;;;40.30;54.20;;;;;;5139421;27;20021;-81
2022/08/25 14:28:34;;;;;;;;;;;40.30;54.40;;;;;;5134962;27;20001;-81
2022/08/25 14:31:05;;;;;;;;;;;40.90;54.40;;;;;;5168601;27;19930;-81
2022/08/25 14:33:51;;;;;;;;;;;40.90;54.50;;;;;;5155754;27;19973;-81
2022/08/25 14:36:16;;;;;;;;;;;41.40;54.60;;;;;;5137781;27;19926;-81
2022/08/25 14:38:42;;;;;;;;;;;41.80;54.00;;;;;;5137195;27;20062;-83